Time;durP1;ratioP1;P1;durP2;ratioP2;P2;SDS_P1;SDS_P2;PMS_P1;PMS_P2;Temp;Humidity;BMP_temperature;BMP_pressure;BME280_temperature;BME280_humidity;BME280_pressure;Samples;Min_cycle;Max_cycle;Signal;HPM_P1;HPM_P2
2022/02/10 00:19:32;;;;;;;29.70;11.57;;;;;;;3.86;100.00;101917.34;4982141;28;20088;-75
2022/02/10 00:22:08;;;;;;;43.95;13.52;;;;;;;4.02;100.00;101920.00;4981623;28;20489;-75
2022/02/10 00:35:39;;;;;;;31.92;12.85;;;;;;;4.62;100.00;101904.03;4978538;28;20037;-74
2022/02/10 00:38:04;;;;;;;35.47;13.73;;;;;;;4.48;100.00;101915.13;4984306;28;20614;-74
2022/02/10 00:40:33;;;;;;;34.92;13.52;;;;;;;4.39;100.00;101900.00;4990700;28;20038;-75
2022/02/10 00:43:00;;;;;;;39.72;14.35;;;;;;;4.48;100.00;101904.75;4987961;28;20042;-74
2022/02/10 00:45:29;;;;;;;38.67;14.30;;;;;;;4.40;100.00;101898.25;4980595;28;20034;-75
2022/02/10 00:48:02;;;;;;;40.13;14.77;;;;;;;4.27;100.00;101898.84;4986683;28;20042;-74
2022/02/10 00:50:29;;;;;;;;;;;;;;;4.24;100.00;101913.78;4982238;28;20485;-75
2022/02/10 00:53:03;;;;;;;28.90;12.48;;;;;;;4.18;100.00;101904.53;4973125;28;20717;-76
2022/02/10 00:55:32;;;;;;;30.30;12.13;;;;;;;4.23;100.00;101906.88;4962118;28;20038;-74
2022/02/10 00:57:58;;;;;;;32.40;13.60;;;;;;;4.37;100.00;101908.78;4973167;28;20069;-76
2022/02/10 01:30:16;;;;;;;42.72;16.15;;;;;;;4.77;100.00;101872.97;4987150;28;20062;-75
2022/02/10 01:32:44;;;;;;;38.05;15.43;;;;;;;4.73;100.00;101869.69;4969191;28;20070;-75
2022/02/10 01:35:14;;;;;;;36.35;16.08;;;;;;;4.67;100.00;101859.59;4963882;28;20117;-74
2022/02/10 01:37:40;;;;;;;38.33;15.23;;;;;;;4.60;100.00;101853.88;4972707;28;20030;-74
2022/02/10 01:40:17;;;;;;;39.85;16.20;;;;;;;4.60;100.00;101843.50;4978383;28;20802;-73
2022/02/10 02:03:17;;;;;;;34.13;14.27;;;;;;;4.61;100.00;101823.53;4966578;28;20046;-74
2022/02/10 02:04:07;;;;;;;32.47;15.15;;;;;;;4.65;100.00;101828.50;4971931;28;20050;-76
2022/02/10 02:06:41;;;;;;;30.73;15.23;;;;;;;4.67;100.00;101818.88;4985238;28;20061;-78
2022/02/10 02:09:11;;;;;;;32.95;15.63;;;;;;;4.70;100.00;101812.66;4984791;28;20066;-76
2022/02/10 02:11:39;;;;;;;50.65;20.08;;;;;;;4.81;100.00;101817.28;4987323;28;20038;-76
2022/02/10 02:14:11;;;;;;;40.50;17.70;;;;;;;4.89;100.00;101809.91;4983028;28;20046;-74
2022/02/10 02:16:45;;;;;;;43.58;18.38;;;;;;;5.02;100.00;101810.06;4987321;28;20109;-75
2022/02/10 02:19:11;;;;;;;47.13;19.55;;;;;;;5.11;100.00;101812.16;4991114;28;20104;-74
2022/02/10 02:21:39;;;;;;;44.85;19.02;;;;;;;5.18;100.00;101803.09;4984152;28;20034;-75
2022/02/10 02:24:06;;;;;;;37.40;16.35;;;;;;;5.21;100.00;101792.50;4985747;28;20026;-75
2022/02/10 02:26:33;;;;;;;21.80;7.55;;;;;;;5.24;100.00;101801.94;4957034;28;20031;-75
2022/02/10 02:29:02;;;;;;;29.88;13.25;;;;;;;5.10;100.00;101792.28;4991022;28;20105;-75
2022/02/10 02:31:36;;;;;;;32.38;13.23;;;;;;;5.00;100.00;101799.75;4967358;28;20090;-76
2022/02/10 02:34:32;;;;;;;25.48;11.50;;;;;;;4.94;100.00;101794.06;4995887;28;20030;-74
2022/02/10 02:37:21;;;;;;;25.00;9.20;;;;;;;4.96;100.00;101793.03;4982858;28;20038;-75
2022/02/10 03:04:51;;;;;;;18.70;6.90;;;;;;;4.98;100.00;101754.78;4979730;28;20027;-74
2022/02/10 03:07:32;;;;;;;18.30;6.53;;;;;;;4.95;100.00;101761.91;4984586;28;20133;-76
2022/02/10 03:12:32;;;;;;;21.65;6.30;;;;;;;4.87;100.00;101750.19;4979031;28;20039;-76
2022/02/10 03:15:01;;;;;;;14.77;6.40;;;;;;;4.73;100.00;101738.84;4985507;28;20041;-76
2022/02/10 03:20:01;;;;;;;17.05;5.65;;;;;;;4.71;100.00;101738.09;4982520;28;20038;-74
2022/02/10 03:22:55;;;;;;;16.27;4.78;;;;;;;4.75;100.00;101739.66;4983054;28;20032;-74
2022/02/10 04:04:10;;;;;;;14.43;5.70;;;;;;;4.34;100.00;101667.38;4983399;28;20035;-76
2022/02/10 04:07:06;;;;;;;13.73;4.90;;;;;;;4.33;100.00;101663.94;4965653;28;20073;-75
2022/02/10 04:14:51;;;;;;;25.15;5.55;;;;;;;4.17;100.00;101640.56;4989784;28;20035;-75
2022/02/10 04:17:38;;;;;;;26.10;5.88;;;;;;;4.24;100.00;101649.69;4961416;28;20042;-74
2022/02/10 04:22:43;;;;;;;14.63;5.63;;;;;;;4.28;100.00;101645.19;4987726;28;20038;-75
2022/02/10 04:25:38;;;;;;;17.48;5.72;;;;;;;4.26;100.00;101636.63;4980186;28;20041;-75
2022/02/10 05:00:43;;;;;;;20.42;9.98;;;;;;;4.29;100.00;101607.88;4984724;28;20034;-76
2022/02/10 05:14:56;;;;;;;24.75;9.50;;;;;;;4.28;100.00;101598.44;4965471;28;20038;-75
2022/02/10 05:16:57;;;;;;;20.65;8.85;;;;;;;4.28;100.00;101598.44;4980605;28;20177;-75
2022/02/10 05:33:13;;;;;;;25.75;10.88;;;;;;;4.26;100.00;101579.50;4981301;28;20038;-75
2022/02/10 05:35:49;;;;;;;30.27;11.40;;;;;;;4.22;100.00;101580.56;4969927;28;20605;-76
2022/02/10 05:38:26;;;;;;;30.98;10.65;;;;;;;4.23;100.00;101587.44;4985683;28;20064;-75
2022/02/10 05:56:40;;;;;;;32.83;11.23;;;;;;;4.25;100.00;101565.66;4973122;28;20519;-76
2022/02/10 05:59:54;;;;;;;31.50;11.38;;;;;;;4.25;100.00;101564.81;4989869;28;20141;-76
2022/02/10 06:44:58;;;;;;;31.58;11.95;;;;;;;4.37;100.00;101564.16;4976057;28;20047;-76
2022/02/10 06:49:00;;;;;;;32.00;11.57;;;;;;;4.35;100.00;101562.53;4983322;28;20041;-76
2022/02/10 06:51:33;;;;;;;25.60;10.23;;;;;;;4.37;100.00;101561.56;4975675;28;20037;-76
2022/02/10 06:54:28;;;;;;;25.40;10.68;;;;;;;4.37;100.00;101556.38;4968762;28;20635;-75
2022/02/10 07:08:13;;;;;;;21.98;10.32;;;;;;;4.43;100.00;101550.81;4979926;28;20424;-75
2022/02/10 07:16:08;;;;;;;19.45;8.98;;;;;;;4.56;100.00;101552.69;4976340;28;20053;-77
2022/02/10 07:44:18;;;;;;;17.85;8.15;;;;;;;4.59;100.00;101547.34;4984569;28;20031;-75
2022/02/10 07:49:02;;;;;;;18.05;7.72;;;;;;;4.59;100.00;101560.31;4964734;28;20130;-75
2022/02/10 07:52:00;;;;;;;15.15;7.72;;;;;;;4.61;100.00;101564.50;4965703;28;20049;-76
2022/02/10 08:17:59;;;;;;;16.83;8.35;;;;;;;4.70;100.00;101562.31;4972891;28;20042;-76
2022/02/10 08:27:57;;;;;;;15.45;7.28;;;;;;;5.04;100.00;101553.38;4985445;28;20565;-75
2022/02/10 09:00:03;;;;;;;13.55;5.60;;;;;;;5.07;100.00;101551.44;4974030;28;20030;-75
2022/02/10 09:26:21;;;;;;;12.55;6.57;;;;;;;5.74;100.00;101563.06;4988349;28;20113;-75
2022/02/10 10:01:00;;;;;;;23.73;9.65;;;;;;;6.09;100.00;101563.47;4972314;28;20045;-75
2022/02/10 10:03:36;;;;;;;19.30;9.20;;;;;;;6.23;100.00;101566.06;4980855;28;20034;-74
2022/02/10 10:06:17;;;;;;;15.98;9.75;;;;;;;6.15;100.00;101562.25;4971029;28;20043;-74
2022/02/10 10:09:03;;;;;;;19.95;9.95;;;;;;;6.11;100.00;101566.00;4969340;28;20035;-74
2022/02/10 10:14:37;;;;;;;24.80;10.95;;;;;;;5.76;100.00;101569.81;4988966;28;20069;-74
2022/02/10 10:17:24;;;;;;;20.08;9.88;;;;;;;5.81;100.00;101561.75;4983438;28;20588;-74
2022/02/10 10:20:05;;;;;;;19.88;9.52;;;;;;;5.68;100.00;101566.03;4953851;28;20562;-75
2022/02/10 10:44:18;;;;;;;20.88;8.95;;;;;;;5.66;100.00;101540.94;4990541;28;20038;-74
2022/02/10 10:53:30;;;;;;;17.05;8.40;;;;;;;6.14;100.00;101532.78;4977998;28;20058;-76
2022/02/10 10:56:05;;;;;;;18.67;9.02;;;;;;;6.15;100.00;101503.16;4978286;28;20035;-75
2022/02/10 11:04:03;;;;;;;18.33;8.00;;;;;;;6.34;100.00;101508.03;4979204;28;20030;-75
2022/02/10 11:45:03;;;;;;;22.10;10.02;;;;;;;6.91;100.00;101521.66;4988184;28;20031;-75
2022/02/10 12:29:23;;;;;;;18.23;9.38;;;;;;;6.49;100.00;101540.06;4973632;28;20038;-75
2022/02/10 12:30:07;;;;;;;13.68;7.38;;;;;;;6.80;100.00;101530.22;4989854;28;20035;-74
2022/02/10 12:36:17;;;;;;;12.15;6.07;;;;;;;7.01;100.00;101534.00;4963223;28;20034;-73
2022/02/10 12:38:55;;;;;;;16.88;6.70;;;;;;;6.91;100.00;101527.75;4974864;28;20038;-73
2022/02/10 12:44:12;;;;;;;15.93;6.03;;;;;;;6.63;100.00;101519.16;4985718;28;20065;-73
2022/02/10 14:10:03;;;;;;;7.93;1.98;;;;;;;6.42;100.00;101538.78;4974173;28;20125;-74
2022/02/10 14:12:51;;;;;;;9.63;2.05;;;;;;;6.42;100.00;101544.84;4990491;28;20029;-74
2022/02/10 14:18:10;;;;;;;15.35;1.83;;;;;;;6.36;100.00;101539.19;4983697;28;20046;-74
2022/02/10 14:20:50;;;;;;;9.45;1.77;;;;;;;6.37;100.00;101551.31;4986978;28;20046;-74
2022/02/10 14:28:31;;;;;;;9.30;1.85;;;;;;;6.48;100.00;101548.84;4992344;28;20042;-74
2022/02/10 14:30:58;;;;;;;10.43;1.80;;;;;;;6.48;100.00;101550.59;4953579;28;20042;-74
2022/02/10 14:33:31;;;;;;;16.42;2.00;;;;;;;6.46;100.00;101545.50;4976967;28;20038;-73
2022/02/10 14:36:17;;;;;;;17.95;2.10;;;;;;;6.57;100.00;101547.38;4983478;28;20501;-73
2022/02/10 14:38:55;;;;;;;11.13;1.85;;;;;;;6.49;100.00;101547.88;4970474;28;20038;-73
2022/02/10 14:41:49;;;;;;;18.88;1.63;;;;;;;6.49;100.00;101554.88;4980878;28;20579;-74
2022/02/10 15:12:35;;;;;;;10.80;1.65;;;;;;;5.89;100.00;101549.06;4982043;28;20113;-74
2022/02/10 15:33:32;;;;;;;14.13;2.45;;;;;;;3.69;100.00;101591.19;4986038;28;20113;-74
2022/02/10 15:47:54;;;;;;;12.43;2.30;;;;;;;3.46;100.00;101582.00;4982910;28;20531;-75
2022/02/10 15:54:57;;;;;;;8.38;1.63;;;;;;;3.46;100.00;101588.94;4984647;28;20035;-75
2022/02/10 16:11:15;;;;;;;10.15;1.70;;;;;;;3.13;100.00;101576.81;4990256;28;20038;-74
2022/02/10 16:16:52;;;;;;;7.88;1.52;;;;;;;3.13;100.00;101582.00;4990542;28;20082;-74
2022/02/10 16:19:18;;;;;;;12.23;1.70;;;;;;;3.20;100.00;101588.56;4972427;28;20125;-74
2022/02/10 16:21:56;;;;;;;9.57;1.60;;;;;;;3.08;100.00;101581.38;4984922;28;20602;-74
2022/02/10 16:24:30;;;;;;;8.43;1.27;;;;;;;2.99;100.00;101584.44;4978512;28;21031;-75
2022/02/10 16:27:00;;;;;;;7.97;1.55;;;;;;;2.99;100.00;101584.44;4986384;28;20539;-74
2022/02/10 16:29:29;;;;;;;15.40;2.35;;;;;;;3.19;100.00;101583.44;4991788;28;20077;-74
2022/02/10 16:31:54;;;;;;;13.05;1.90;;;;;;;3.14;100.00;101591.44;4992905;28;20033;-74
2022/02/10 16:34:20;;;;;;;17.35;2.10;;;;;;;3.08;100.00;101595.19;4974702;28;20108;-73
2022/02/10 16:36:47;;;;;;;11.63;1.90;;;;;;;3.14;100.00;101598.38;4991114;28;20046;-74
2022/02/10 16:39:18;;;;;;;14.13;2.42;;;;;;;3.16;100.00;101604.31;4990984;28;20124;-74
2022/02/10 16:41:45;;;;;;;10.90;2.20;;;;;;;3.10;100.00;101605.47;4987733;28;20370;-74
2022/02/10 16:44:11;;;;;;;14.82;2.20;;;;;;;3.06;100.00;101609.16;4983447;28;20710;-75
2022/02/10 16:46:36;;;;;;;18.30;2.35;;;;;;;2.98;100.00;101616.47;4968968;28;20108;-75
2022/02/10 16:49:02;;;;;;;12.60;2.08;;;;;;;2.95;100.00;101614.03;4975293;28;20050;-75
2022/02/10 16:51:28;;;;;;;18.40;2.25;;;;;;;3.00;100.00;101610.28;4970780;28;20031;-75
2022/02/10 16:54:03;;;;;;;10.48;1.90;;;;;;;2.95;100.00;101616.63;4989822;28;20038;-75
2022/02/10 16:56:37;;;;;;;16.42;2.60;;;;;;;2.92;100.00;101620.22;4987392;28;20162;-77
2022/02/10 16:59:23;;;;;;;11.50;2.40;;;;;;;2.93;100.00;101614.09;4970303;28;20035;-77
2022/02/10 17:04:43;;;;;;;15.07;2.28;;;;;;;3.08;100.00;101622.88;4994325;28;20181;-76
2022/02/10 17:18:26;;;;;;;14.63;2.28;;;;;;;2.90;100.00;101616.81;4983799;28;20722;-74
2022/02/10 17:26:27;;;;;;;16.65;2.50;;;;;;;2.88;100.00;101624.69;4986310;28;20026;-75
2022/02/10 17:28:51;;;;;;;18.05;2.40;;;;;;;2.92;100.00;101625.38;4976539;28;20038;-74
2022/02/10 17:34:15;;;;;;;18.25;2.33;;;;;;;2.92;100.00;101636.59;4974479;28;20053;-74
2022/02/10 17:42:17;;;;;;;23.33;3.03;;;;;;;2.74;100.00;101634.88;4990461;28;20037;-74
2022/02/10 17:44:55;;;;;;;24.20;2.80;;;;;;;2.76;100.00;101633.06;4954904;28;20026;-75
2022/02/10 17:53:25;;;;;;;16.88;2.17;;;;;;;2.67;100.00;101636.09;4984217;28;20212;-75
2022/02/10 17:55:41;;;;;;;15.23;2.65;;;;;;;2.58;100.00;101644.28;4980306;28;20178;-74
2022/02/10 17:58:07;;;;;;;18.80;2.13;;;;;;;2.60;100.00;101645.91;4971893;28;20137;-74
2022/02/10 18:00:32;;;;;;;15.20;2.33;;;;;;;2.54;100.00;101648.78;4952914;28;20059;-74
2022/02/10 18:02:59;;;;;;;13.02;2.25;;;;;;;2.60;100.00;101645.91;4975529;28;20485;-74
2022/02/10 18:05:56;;;;;;;17.08;2.58;;;;;;;2.56;100.00;101641.75;4982197;28;20050;-75
2022/02/10 18:08:15;;;;;;;15.77;2.53;;;;;;;2.61;100.00;101651.94;4965250;28;20042;-75
2022/02/10 18:15:43;;;;;;;17.20;2.58;;;;;;;2.32;100.00;101651.53;4989225;28;20038;-75
2022/02/10 18:18:21;;;;;;;8.70;1.85;;;;;;;2.25;100.00;101657.91;4987192;28;20041;-75
2022/02/10 18:20:54;;;;;;;13.20;2.90;;;;;;;2.24;100.00;101656.22;4991266;28;20493;-74
2022/02/10 18:23:27;;;;;;;11.85;2.05;;;;;;;2.29;100.00;101656.84;4957317;28;20045;-75
2022/02/10 18:26:02;;;;;;;18.13;1.85;;;;;;;2.31;100.00;101655.88;4980078;28;20654;-74
2022/02/10 18:28:38;;;;;;;14.18;2.72;;;;;;;2.35;100.00;101653.97;4979322;28;20038;-74
2022/02/10 19:06:10;;;;;;;14.88;2.13;;;;;;;2.69;100.00;101667.94;4987317;28;20026;-74
2022/02/10 19:08:46;;;;;;;20.92;2.40;;;;;;;2.53;100.00;101652.28;4984670;28;20043;-74
2022/02/10 19:11:14;;;;;;;18.70;2.33;;;;;;;2.31;100.00;101658.44;4967696;28;20035;-75
2022/02/10 19:13:40;;;;;;;13.73;2.30;;;;;;;2.25;100.00;101669.09;4972708;28;20041;-74
2022/02/10 19:16:06;;;;;;;23.20;3.03;;;;;;;2.16;100.00;101666.09;4965068;28;20047;-76
2022/02/10 19:18:32;;;;;;;15.93;2.10;;;;;;;2.06;100.00;101668.25;4987737;28;20040;-76
2022/02/10 19:20:58;;;;;;;14.80;2.38;;;;;;;2.05;100.00;101671.75;4975846;28;20046;-74
2022/02/10 19:23:25;;;;;;;14.45;2.10;;;;;;;2.00;100.00;101666.78;4977131;28;20030;-73
2022/02/10 19:25:51;;;;;;;12.45;2.17;;;;;;;2.11;100.00;101676.63;4987589;28;20066;-74
2022/02/10 19:28:17;;;;;;;17.65;2.65;;;;;;;2.11;100.00;101672.31;4988829;28;20038;-74
2022/02/10 19:30:44;;;;;;;13.43;2.78;;;;;;;2.19;100.00;101673.72;4981401;28;20035;-75
2022/02/10 19:33:11;;;;;;;17.67;3.10;;;;;;;2.12;100.00;101673.16;4970304;28;20141;-75
2022/02/10 19:35:43;;;;;;;15.30;2.50;;;;;;;2.19;100.00;101677.16;4984511;28;20043;-74
2022/02/10 19:38:14;;;;;;;19.17;2.50;;;;;;;2.20;100.00;101675.41;4975490;28;20034;-75
2022/02/10 19:40:40;;;;;;;19.88;2.10;;;;;;;2.14;100.00;101677.34;4971946;28;20046;-74
2022/02/10 19:43:06;;;;;;;14.85;2.92;;;;;;;2.07;100.00;101682.88;4958942;28;20501;-74
2022/02/10 19:45:33;;;;;;;23.42;3.25;;;;;;;2.04;100.00;101683.03;4968793;28;20046;-75
2022/02/10 19:47:59;;;;;;;14.20;2.88;;;;;;;2.06;100.00;101678.63;4952200;28;20464;-75
2022/02/10 19:50:28;;;;;;;12.32;2.40;;;;;;;1.89;100.00;101687.97;4983941;28;20035;-75
2022/02/10 19:52:58;;;;;;;13.88;2.33;;;;;;;1.74;100.00;101694.63;4967726;28;20034;-75
2022/02/10 19:55:24;;;;;;;15.48;2.53;;;;;;;1.69;100.00;101691.41;4986613;28;20041;-75
2022/02/10 19:57:56;;;;;;;16.75;2.50;;;;;;;1.62;100.00;101694.31;4957203;28;20114;-75
2022/02/10 20:00:27;;;;;;;15.83;2.30;;;;;;;1.67;100.00;101692.38;4987457;28;20051;-75
2022/02/10 20:02:54;;;;;;;14.82;2.78;;;;;;;1.70;100.00;101689.66;4988589;28;20519;-75
2022/02/10 20:05:25;;;;;;;17.60;2.85;;;;;;;1.63;100.00;101689.06;4974772;28;20111;-75
2022/02/10 20:07:54;;;;;;;17.95;2.90;;;;;;;1.54;100.00;101682.56;4987129;28;20528;-75
2022/02/10 20:10:21;;;;;;;20.23;3.28;;;;;;;1.50;100.00;101683.59;4985191;28;20045;-75
2022/02/10 20:12:47;;;;;;;16.65;2.88;;;;;;;1.45;100.00;101680.38;4985089;28;20030;-75
2022/02/10 20:15:13;;;;;;;19.17;3.03;;;;;;;1.49;100.00;101675.91;4969543;28;20096;-75
2022/02/10 20:17:41;;;;;;;25.25;2.95;;;;;;;1.46;100.00;101676.03;4958564;28;20437;-78
2022/02/10 20:20:09;;;;;;;19.58;3.08;;;;;;;1.42;100.00;101671.91;4981887;28;20042;-76
2022/02/10 20:22:38;;;;;;;15.18;2.40;;;;;;;1.47;100.00;101669.94;4985264;28;20042;-75
2022/02/10 20:25:08;;;;;;;19.80;2.72;;;;;;;1.63;100.00;101675.31;4973233;28;20038;-75
2022/02/10 20:27:35;;;;;;;18.73;3.38;;;;;;;1.70;100.00;101681.91;4975956;28;20033;-75
2022/02/10 20:30:02;;;;;;;10.60;2.28;;;;;;;1.59;100.00;101681.53;4994649;28;20058;-74
2022/02/10 20:32:28;;;;;;;18.75;2.72;;;;;;;1.51;100.00;101685.28;4972623;28;20023;-75
2022/02/10 20:34:54;;;;;;;12.55;2.47;;;;;;;1.40;100.00;101684.88;4990000;28;20050;-75
2022/02/10 20:37:23;;;;;;;14.98;2.97;;;;;;;1.34;100.00;101688.56;4962563;28;20049;-75
2022/02/10 20:39:48;;;;;;;15.68;2.78;;;;;;;1.25;100.00;101683.78;4987406;28;20038;-75
2022/02/10 20:42:17;;;;;;;15.63;2.15;;;;;;;1.31;100.00;101687.84;4985431;28;20042;-76
2022/02/10 20:44:47;;;;;;;12.45;2.60;;;;;;;1.32;100.00;101685.22;4975123;28;20066;-76
2022/02/10 20:47:17;;;;;;;18.55;2.53;;;;;;;1.42;100.00;101683.06;4967634;28;20035;-75
2022/02/10 20:49:43;;;;;;;23.10;2.70;;;;;;;1.45;100.00;101675.19;4989471;28;20038;-75
2022/02/10 20:52:08;;;;;;;16.48;2.90;;;;;;;1.63;100.00;101673.56;4981721;28;20038;-74
2022/02/10 20:54:34;;;;;;;25.33;3.30;;;;;;;1.91;100.00;101672.38;4966890;28;20030;-75
2022/02/10 20:57:00;;;;;;;22.08;2.75;;;;;;;1.89;100.00;101667.25;4975349;28;20050;-74
2022/02/10 21:02:03;;;;;;;14.93;2.17;;;;;;;2.20;100.00;101667.63;4987180;28;20030;-75
2022/02/10 21:04:32;;;;;;;18.17;2.70;;;;;;;2.02;100.00;101664.97;4958598;28;20047;-74
2022/02/10 21:07:23;;;;;;;16.50;3.08;;;;;;;1.85;100.00;101670.06;4953372;28;20043;-75
2022/02/10 21:09:58;;;;;;;17.60;2.65;;;;;;;1.95;100.00;101679.09;4988590;28;20158;-74
2022/02/10 21:12:28;;;;;;;14.85;2.75;;;;;;;2.06;100.00;101673.44;4977294;28;20058;-75
2022/02/10 21:14:53;;;;;;;19.33;3.10;;;;;;;1.97;100.00;101672.09;4985829;28;20125;-76
2022/02/10 21:17:24;;;;;;;20.88;3.42;;;;;;;1.94;100.00;101680.84;4988144;28;20094;-76
2022/02/10 21:19:50;;;;;;;17.05;2.53;;;;;;;1.98;100.00;101673.78;4985367;28;20062;-75
2022/02/10 21:22:19;;;;;;;18.98;2.83;;;;;;;2.06;100.00;101679.44;4988096;28;20080;-75
2022/02/10 21:24:57;;;;;;;18.38;2.75;;;;;;;2.01;100.00;101675.38;4989480;28;20035;-75
2022/02/10 21:29:56;;;;;;;19.58;3.45;;;;;;;2.12;100.00;101678.34;4987674;28;20475;-75
2022/02/10 21:32:23;;;;;;;15.82;2.75;;;;;;;1.88;100.00;101667.31;4979706;28;20048;-76
2022/02/10 21:37:43;;;;;;;20.05;2.53;;;;;;;1.57;100.00;101665.25;4989612;28;20031;-76
2022/02/10 21:40:27;;;;;;;15.85;2.42;;;;;;;1.95;100.00;101666.97;4972503;28;20069;-74
2022/02/10 21:52:36;;;;;;;24.45;3.35;;;;;;;1.79;100.00;101659.97;4987871;28;20034;-75
2022/02/10 22:10:06;;;;;;;22.10;2.95;;;;;;;1.13;100.00;101664.47;4972122;28;20041;-75
2022/02/10 22:20:44;;;;;;;15.82;2.15;;;;;;;1.18;100.00;101674.59;4983910;28;20038;-74
2022/02/10 22:23:24;;;;;;;14.63;3.22;;;;;;;1.24;100.00;101678.66;4977011;28;20054;-76
2022/02/10 22:25:52;;;;;;;20.73;2.40;;;;;;;1.27;100.00;101666.47;4984675;28;20015;-75
2022/02/10 22:29:04;;;;;;;22.17;2.35;;;;;;;1.63;100.00;101665.81;4977797;28;20034;-74
2022/02/10 22:31:23;;;;;;;26.88;3.22;;;;;;;1.71;100.00;101668.91;4975205;28;20046;-75
2022/02/10 22:34:06;;;;;;;12.77;2.80;;;;;;;1.95;100.00;101673.91;4959269;28;20453;-74
2022/02/10 22:36:34;;;;;;;28.83;2.95;;;;;;;2.26;100.00;101665.63;4962350;28;20034;-75
2022/02/10 22:39:02;;;;;;;22.15;2.63;;;;;;;2.37;100.00;101662.50;4956117;28;20097;-74
2022/02/10 22:41:28;;;;;;;13.35;2.00;;;;;;;2.36;100.00;101666.03;4963995;28;20413;-74
2022/02/10 22:43:54;;;;;;;18.85;2.40;;;;;;;2.45;100.00;101664.75;4983540;28;20035;-74
2022/02/10 22:46:21;;;;;;;14.77;2.63;;;;;;;2.40;100.00;101667.56;4978911;28;20023;-75
2022/02/10 22:48:48;;;;;;;29.67;3.70;;;;;;;2.40;100.00;101670.16;4972744;28;20053;-74
2022/02/10 22:51:18;;;;;;;18.38;2.25;;;;;;;2.16;100.00;101666.94;4985712;28;20452;-73
2022/02/10 22:53:45;;;;;;;23.48;3.03;;;;;;;2.19;100.00;101671.16;4963180;28;20493;-74
2022/02/10 22:56:12;;;;;;;16.02;2.63;;;;;;;2.00;100.00;101661.63;4986924;28;20487;-75
2022/02/10 22:58:39;;;;;;;21.73;2.78;;;;;;;1.98;100.00;101652.22;4980874;28;20037;-75
2022/02/10 23:01:06;;;;;;;15.63;2.13;;;;;;;1.99;100.00;101661.69;4989399;28;20121;-74
2022/02/10 23:03:32;;;;;;;15.25;2.58;;;;;;;1.98;100.00;101653.09;4992332;28;20039;-74
2022/02/10 23:05:58;;;;;;;12.80;2.38;;;;;;;2.26;100.00;101657.84;4981538;28;20031;-74
2022/02/10 23:08:24;;;;;;;19.23;2.58;;;;;;;2.08;100.00;101646.56;4969476;28;20035;-74
2022/02/10 23:10:52;;;;;;;13.73;2.17;;;;;;;2.04;100.00;101654.56;4985143;28;20045;-74
2022/02/10 23:13:25;;;;;;;28.67;3.20;;;;;;;1.96;100.00;101657.50;4991921;28;20030;-74
2022/02/10 23:15:52;;;;;;;17.15;2.17;;;;;;;2.19;100.00;101651.25;4983441;28;20050;-74
2022/02/10 23:18:20;;;;;;;24.92;3.10;;;;;;;2.24;100.00;101664.84;4982527;28;20033;-74
2022/02/10 23:20:48;;;;;;;29.92;2.80;;;;;;;2.09;100.00;101661.19;4971378;28;20107;-75
2022/02/10 23:23:16;;;;;;;24.60;3.03;;;;;;;2.24;100.00;101659.66;4956573;28;20030;-74
2022/02/10 23:25:44;;;;;;;19.60;2.60;;;;;;;2.33;100.00;101664.41;4971014;28;20038;-75
2022/02/10 23:28:13;;;;;;;21.77;3.42;;;;;;;2.33;100.00;101658.38;4984254;28;20031;-73
2022/02/10 23:30:40;;;;;;;23.00;2.60;;;;;;;2.47;100.00;101658.59;4966589;28;20038;-73
2022/02/10 23:33:17;;;;;;;18.27;2.88;;;;;;;2.55;100.00;101657.41;4987875;28;20042;-75
2022/02/10 23:38:33;;;;;;;20.02;2.20;;;;;;;2.53;100.00;101655.72;4981833;28;20031;-76
2022/02/10 23:43:44;;;;;;;16.17;3.05;;;;;;;2.62;100.00;101651.00;4979974;28;20035;-75
2022/02/10 23:46:10;;;;;;;17.45;2.55;;;;;;;2.58;100.00;101654.66;4979342;28;20034;-75
2022/02/10 23:48:36;;;;;;;16.30;2.47;;;;;;;2.68;100.00;101651.56;4975986;28;20640;-74
2022/02/10 23:51:01;;;;;;;21.52;3.15;;;;;;;2.63;100.00;101645.75;4959568;28;20050;-74
2022/02/10 23:53:28;;;;;;;19.27;2.25;;;;;;;2.77;100.00;101644.25;4977276;28;20023;-75
2022/02/10 23:55:55;;;;;;;19.73;2.35;;;;;;;2.61;100.00;101655.34;4964388;28;20500;-75
